Alianca Shanghai — A8CQ5 — position and weather

sailwx.info

Track history (hours):
 
Tides and Currents Weather Stations Pressure Air Temp Water Temp Dewpoint Dewpoint Depression Visibility Wind Speed Wind Dir Waves Ship Positions

Alianca Shanghai

Last reported at 2016-Sep-28 16:33 UTC. Time now 2016-Sep-28 18:54 UTC.
Position N 51°20' E 004°20'.

Length 199.9 m; beam 29.8 m; draft 11.6 m.

Type: Ship. MMSI: 636016014.

Date/timePositionNaut miles runAvg speedWind from/ knotsBaromVisibWave heightAir tempDewpointWater temp
2016-Sep-28 16:33N 51°20' E 004°20'0 0.0
2016-Sep-28 15:33N 51°20' E 004°20'0 0.0
2016-Sep-28 12:33N 51°20' E 004°20'0 0.0
2016-Sep-28 08:30N 51°20' E 004°20'0 0.0
2016-Sep-28 03:27N 51°20' E 004°20'0 0.0
2016-Sep-28 02:33N 51°20' E 004°20'0 0.0
2016-Sep-28 01:33N 51°20' E 004°20'0 0.0
2016-Sep-27 23:33N 51°20' E 004°20'0 0.0
2016-Sep-27 19:30N 51°20' E 004°20'0 0.0
2016-Sep-27 14:30N 51°20' E 004°20'0 0.0
2016-Sep-27 13:24N 51°20' E 004°20'0 0.0
2016-Sep-27 10:33N 51°20' E 004°20'0 0.0
2016-Sep-27 00:33N 51°20' E 004°20'0 0.0
2016-Sep-26 20:30N 51°20' E 004°20'0 0.0
2016-Sep-26 19:33N 51°20' E 004°20'0 0.0
2016-Sep-26 15:33N 51°20' E 004°20'0 0.0
2016-Sep-26 13:33N 51°20' E 004°20'2 1.2
2016-Sep-26 11:33N 51°21' E 004°17'21 6.9
2016-Sep-26 08:33N 51°22' E 003°44'50 8.3
2016-Sep-26 02:33N 51°20' E 002°25'9 8.9
2016-Sep-26 01:33N 51°16' E 002°12'9 9.2
2016-Sep-26 00:33N 51°12' E 001°59'29 9.0
2016-Sep-25 21:22N 50°52' E 001°26'58 9.7
2016-Sep-25 15:26N 50°21' E 000°10'1213.2
2016-Sep-25 14:30N 50°17' W 000°08'2512.7
2016-Sep-25 12:33N 50°10' W 000°46'9110.8
2016-Sep-25 04:08N 49°46' W 003°02'10512.3
2016-Sep-24 19:33N 48°52' W 005°21'  
2016-Sep-20 17:33N 28°52' W 015°09'4715.5
2016-Sep-20 14:33N 28°08' W 015°23'2 1.6
2016-Sep-20 13:33N 28°08' W 015°25'0 0.0
2016-Sep-20 10:24N 28°08' W 015°25'1 0.4
2016-Sep-20 08:33N 28°07' W 015°24'5 5.4
2016-Sep-20 07:33N 28°03' W 015°20'1313.3
2016-Sep-20 06:33N 27°51' W 015°16'  
Track history (hours):
 
Tides and Currents Weather Stations Pressure Air Temp Water Temp Dewpoint Dewpoint Depression Visibility Wind Speed Wind Dir Waves Ship Positions

Alianca Shanghai

Last reported at 2016-Sep-28 16:33 UTC. Time now 2016-Sep-28 18:54 UTC.
Position N 51°20' E 004°20'.

Length 199.9 m; beam 29.8 m; draft 11.6 m.

Type: Ship. MMSI: 636016014.

Date/timePositionNaut miles runAvg speedWind from/ knotsBaromVisibWave heightAir tempDewpointWater temp
2016-Sep-28 16:33N 51°20' E 004°20'0 0.0
2016-Sep-28 15:33N 51°20' E 004°20'0 0.0
2016-Sep-28 12:33N 51°20' E 004°20'0 0.0
2016-Sep-28 08:30N 51°20' E 004°20'0 0.0
2016-Sep-28 03:27N 51°20' E 004°20'0 0.0
2016-Sep-28 02:33N 51°20' E 004°20'0 0.0
2016-Sep-28 01:33N 51°20' E 004°20'0 0.0
2016-Sep-27 23:33N 51°20' E 004°20'0 0.0
2016-Sep-27 19:30N 51°20' E 004°20'0 0.0
2016-Sep-27 14:30N 51°20' E 004°20'0 0.0
2016-Sep-27 13:24N 51°20' E 004°20'0 0.0
2016-Sep-27 10:33N 51°20' E 004°20'0 0.0
2016-Sep-27 00:33N 51°20' E 004°20'0 0.0
2016-Sep-26 20:30N 51°20' E 004°20'0 0.0
2016-Sep-26 19:33N 51°20' E 004°20'0 0.0
2016-Sep-26 15:33N 51°20' E 004°20'0 0.0
2016-Sep-26 13:33N 51°20' E 004°20'2 1.2
2016-Sep-26 11:33N 51°21' E 004°17'21 6.9
2016-Sep-26 08:33N 51°22' E 003°44'50 8.3
2016-Sep-26 02:33N 51°20' E 002°25'9 8.9
2016-Sep-26 01:33N 51°16' E 002°12'9 9.2
2016-Sep-26 00:33N 51°12' E 001°59'29 9.0
2016-Sep-25 21:22N 50°52' E 001°26'58 9.7
2016-Sep-25 15:26N 50°21' E 000°10'1213.2
2016-Sep-25 14:30N 50°17' W 000°08'2512.7
2016-Sep-25 12:33N 50°10' W 000°46'9110.8
2016-Sep-25 04:08N 49°46' W 003°02'10512.3
2016-Sep-24 19:33N 48°52' W 005°21'  
2016-Sep-20 17:33N 28°52' W 015°09'4715.5
2016-Sep-20 14:33N 28°08' W 015°23'2 1.6
2016-Sep-20 13:33N 28°08' W 015°25'0 0.0
2016-Sep-20 10:24N 28°08' W 015°25'1 0.4
2016-Sep-20 08:33N 28°07' W 015°24'5 5.4
2016-Sep-20 07:33N 28°03' W 015°20'1313.3
2016-Sep-20 06:33N 27°51' W 015°16'  

Dump ship's entire track history